createdAt,value
2022-11-25T00:01:35.753Z,3.30
2022-11-25T00:04:04.238Z,3.40
2022-11-25T00:06:34.675Z,3.40
2022-11-25T00:09:06.980Z,3.40
2022-11-25T00:11:36.624Z,3.50
2022-11-25T00:14:05.264Z,3.50
2022-11-25T00:16:33.448Z,3.40
2022-11-25T00:19:01.604Z,3.40
2022-11-25T00:21:32.706Z,3.40
2022-11-25T00:24:05.518Z,3.60
2022-11-25T00:26:34.788Z,3.70
2022-11-25T00:29:04.927Z,3.90
2022-11-25T00:31:34.657Z,4.00
2022-11-25T00:34:03.050Z,4.00
2022-11-25T00:36:33.547Z,4.10
2022-11-25T00:39:05.695Z,3.90
2022-11-25T00:41:51.267Z,3.90
2022-11-25T00:44:41.076Z,3.90
2022-11-25T00:47:12.401Z,3.80
2022-11-25T00:49:41.975Z,3.60
2022-11-25T00:52:10.998Z,3.40
2022-11-25T00:54:40.661Z,3.30
2022-11-25T00:57:08.856Z,3.20
2022-11-25T00:59:37.316Z,3.10
2022-11-25T01:02:05.425Z,3.10
2022-11-25T01:04:34.460Z,3.10
2022-11-25T01:07:03.225Z,3.20
2022-11-25T01:09:32.104Z,3.10
2022-11-25T01:12:01.668Z,3.10
2022-11-25T01:14:30.515Z,3.00
2022-11-25T01:16:58.528Z,3.00
2022-11-25T01:19:27.711Z,2.90
2022-11-25T01:21:55.845Z,3.00
2022-11-25T01:24:24.259Z,2.90
2022-11-25T01:26:52.343Z,3.00
2022-11-25T01:29:21.699Z,2.90
2022-11-25T01:31:49.828Z,3.00
2022-11-25T01:34:20.256Z,3.00
2022-11-25T01:36:48.899Z,3.00
2022-11-25T01:39:19.689Z,3.00
2022-11-25T01:41:48.504Z,3.10
2022-11-25T01:44:18.664Z,3.00
2022-11-25T01:46:56.855Z,2.90
2022-11-25T01:49:35.622Z,3.00
2022-11-25T01:52:10.269Z,3.00
2022-11-25T01:54:42.455Z,3.00
2022-11-25T01:57:15.242Z,3.00
2022-11-25T01:59:47.796Z,3.00
2022-11-25T02:02:17.934Z,3.10
2022-11-25T02:04:47.370Z,3.10
2022-11-25T02:07:21.118Z,3.10
2022-11-25T02:09:51.126Z,3.10
2022-11-25T02:12:21.128Z,3.20
2022-11-25T02:14:51.175Z,3.30
2022-11-25T02:17:21.636Z,3.20
2022-11-25T02:19:59.675Z,3.20
2022-11-25T02:22:35.727Z,3.20
2022-11-25T02:25:11.830Z,3.20
2022-11-25T02:27:40.676Z,3.20
2022-11-25T02:30:09.869Z,3.20
2022-11-25T02:32:43.908Z,3.20
2022-11-25T02:35:29.946Z,3.30
2022-11-25T02:38:02.855Z,3.40
2022-11-25T02:40:33.065Z,3.30
2022-11-25T02:43:04.148Z,3.40
2022-11-25T02:45:43.416Z,3.40
2022-11-25T02:48:12.215Z,3.40
2022-11-25T02:50:40.430Z,3.40
2022-11-25T02:53:08.514Z,3.50
2022-11-25T02:55:38.120Z,3.60
2022-11-25T02:58:06.612Z,3.70
2022-11-25T03:00:34.972Z,3.70
2022-11-25T03:03:03.342Z,3.70
2022-11-25T03:05:31.408Z,3.70
2022-11-25T03:07:59.419Z,3.50
2022-11-25T03:10:27.560Z,3.40
2022-11-25T03:12:56.913Z,3.50
2022-11-25T03:15:25.398Z,3.50
2022-11-25T03:17:53.740Z,3.50
2022-11-25T03:20:22.977Z,3.40
2022-11-25T03:22:51.095Z,3.30
2022-11-25T03:25:19.588Z,3.30
2022-11-25T03:27:48.147Z,3.40
2022-11-25T03:30:20.507Z,3.50
2022-11-25T03:32:48.858Z,3.60
2022-11-25T03:35:18.557Z,3.80
2022-11-25T03:37:48.041Z,3.70
2022-11-25T03:40:18.010Z,3.80
2022-11-25T03:42:46.721Z,3.80
2022-11-25T03:45:17.648Z,3.80
2022-11-25T03:47:46.632Z,3.60
2022-11-25T03:50:16.534Z,3.50
2022-11-25T03:52:44.647Z,3.50
2022-11-25T03:55:13.238Z,3.70
2022-11-25T03:57:41.491Z,3.70
2022-11-25T04:00:12.144Z,3.80
2022-11-25T04:02:41.492Z,3.90
2022-11-25T04:05:10.179Z,4.00
2022-11-25T04:07:38.364Z,4.20
2022-11-25T04:10:07.791Z,4.20
2022-11-25T04:12:47.899Z,4.20
2022-11-25T04:15:17.198Z,3.90
2022-11-25T04:17:46.908Z,3.60
2022-11-25T04:20:16.085Z,3.80
2022-11-25T04:22:44.230Z,3.90
2022-11-25T04:25:12.805Z,4.10
2022-11-25T04:27:40.834Z,4.00
2022-11-25T04:30:11.673Z,4.10
2022-11-25T04:32:40.360Z,4.10
2022-11-25T04:35:10.966Z,4.00
2022-11-25T04:37:39.866Z,4.10
2022-11-25T04:40:09.875Z,4.10
2022-11-25T04:42:41.806Z,4.10
2022-11-25T04:45:23.071Z,4.20
2022-11-25T04:47:52.436Z,4.30
2022-11-25T04:50:24.368Z,4.20
2022-11-25T04:52:52.449Z,4.30
2022-11-25T04:55:20.684Z,4.30
2022-11-25T04:57:48.743Z,4.20
2022-11-25T05:00:16.504Z,4.30
2022-11-25T05:02:44.640Z,4.40
2022-11-25T05:05:13.731Z,4.50
2022-11-25T05:07:43.147Z,4.20
2022-11-25T05:10:11.329Z,4.10
2022-11-25T05:12:39.726Z,3.90
2022-11-25T05:15:09.147Z,3.80
2022-11-25T05:17:37.268Z,3.70
2022-11-25T05:20:06.898Z,3.60
2022-11-25T05:22:35.935Z,3.80
2022-11-25T05:25:07.263Z,3.80
2022-11-25T05:27:35.583Z,3.90
2022-11-25T05:30:04.275Z,4.10
2022-11-25T05:32:32.626Z,3.90
2022-11-25T05:35:00.667Z,3.70
2022-11-25T05:37:28.691Z,3.70
2022-11-25T05:39:56.824Z,3.70
2022-11-25T05:42:28.237Z,3.60
2022-11-25T05:44:56.918Z,3.60
2022-11-25T05:47:24.967Z,3.50
2022-11-25T05:49:53.003Z,3.40
2022-11-25T05:52:21.088Z,3.30
2022-11-25T05:54:52.172Z,3.20
2022-11-25T05:57:22.467Z,3.20
2022-11-25T05:59:51.781Z,3.40
2022-11-25T06:02:19.954Z,3.40
2022-11-25T06:04:47.984Z,3.40
2022-11-25T06:07:16.068Z,3.30
2022-11-25T06:09:44.060Z,3.30
2022-11-25T06:12:12.061Z,3.30
2022-11-25T06:14:40.075Z,3.30
2022-11-25T06:17:09.386Z,3.40
2022-11-25T06:19:37.356Z,3.40
2022-11-25T06:22:05.585Z,3.40
2022-11-25T06:24:33.745Z,3.50
2022-11-25T06:27:02.120Z,3.50
2022-11-25T06:29:30.071Z,3.60
2022-11-25T06:31:58.167Z,3.70
2022-11-25T06:34:27.608Z,3.70
2022-11-25T06:36:55.743Z,3.60
2022-11-25T06:39:23.745Z,3.50
2022-11-25T06:41:51.732Z,3.50
2022-11-25T06:44:20.021Z,3.50
2022-11-25T06:46:48.481Z,3.30
2022-11-25T06:49:16.551Z,3.20
2022-11-25T06:51:45.870Z,3.20
2022-11-25T06:54:13.937Z,3.20
2022-11-25T06:56:42.061Z,3.20
2022-11-25T06:59:14.319Z,3.20
2022-11-25T07:01:42.398Z,3.10
2022-11-25T07:04:10.444Z,3.00
2022-11-25T07:06:38.475Z,3.00
2022-11-25T07:09:08.120Z,3.00
2022-11-25T07:11:37.843Z,3.00
2022-11-25T07:14:07.564Z,3.00
2022-11-25T07:16:36.002Z,3.10
2022-11-25T07:19:04.548Z,3.20
2022-11-25T07:21:34.189Z,3.20
2022-11-25T07:24:04.902Z,3.30
2022-11-25T07:26:38.128Z,3.30
2022-11-25T07:29:23.549Z,3.30
2022-11-25T07:31:57.337Z,3.20
2022-11-25T07:34:25.326Z,3.30
2022-11-25T07:36:53.343Z,3.30
2022-11-25T07:39:23.057Z,3.20
2022-11-25T07:41:53.657Z,3.10
2022-11-25T07:44:22.637Z,3.20
2022-11-25T07:46:51.817Z,3.40
2022-11-25T07:49:25.577Z,3.40
2022-11-25T07:51:55.543Z,3.40
2022-11-25T07:54:24.698Z,3.50
2022-11-25T07:56:54.135Z,3.40
2022-11-25T07:59:24.173Z,3.20
2022-11-25T08:01:53.953Z,3.10
2022-11-25T08:04:23.078Z,3.20
2022-11-25T08:06:53.776Z,3.20
2022-11-25T08:09:25.106Z,3.20
2022-11-25T08:11:54.925Z,3.30
2022-11-25T08:14:22.968Z,3.30
2022-11-25T08:16:51.097Z,3.10
2022-11-25T08:19:29.891Z,3.10
2022-11-25T08:21:59.481Z,3.10
2022-11-25T08:24:28.361Z,3.20
2022-11-25T08:26:59.097Z,3.30
2022-11-25T08:29:27.313Z,3.30
2022-11-25T08:31:55.327Z,3.40
2022-11-25T08:34:25.148Z,3.60
2022-11-25T08:36:53.355Z,3.70
2022-11-25T08:39:52.284Z,3.70
2022-11-25T08:42:12.718Z,3.60
2022-11-25T08:44:40.861Z,3.60
2022-11-25T08:47:10.331Z,3.50
2022-11-25T08:49:41.158Z,3.60
2022-11-25T08:52:10.915Z,3.60
2022-11-25T08:54:39.067Z,3.60
2022-11-25T08:57:08.197Z,3.70
2022-11-25T08:59:38.289Z,3.80
2022-11-25T09:02:07.555Z,3.90
2022-11-25T09:04:35.632Z,4.10
2022-11-25T09:07:05.920Z,4.20
2022-11-25T09:09:34.551Z,4.20
2022-11-25T09:12:03.638Z,4.30
2022-11-25T09:14:31.712Z,4.30
2022-11-25T09:17:02.134Z,4.40
2022-11-25T09:19:30.079Z,4.40
2022-11-25T09:21:58.039Z,4.40
2022-11-25T09:24:26.050Z,4.40
2022-11-25T09:26:54.759Z,4.40
2022-11-25T09:29:22.730Z,4.40
2022-11-25T09:31:54.631Z,4.40
2022-11-25T09:34:24.495Z,4.50
2022-11-25T09:36:52.894Z,4.60
2022-11-25T09:39:20.830Z,4.70
2022-11-25T09:42:26.089Z,4.80
2022-11-25T09:45:25.246Z,4.80
2022-11-25T09:48:02.895Z,4.90
2022-11-25T09:50:49.663Z,4.90
2022-11-25T09:53:28.290Z,5.00
2022-11-25T09:56:03.784Z,5.00
2022-11-25T09:58:36.313Z,5.10
2022-11-25T10:01:07.173Z,5.20
2022-11-25T10:03:40.341Z,5.30
2022-11-25T10:06:16.124Z,5.40
2022-11-25T10:08:48.341Z,5.40
2022-11-25T10:11:25.752Z,5.50
2022-11-25T10:13:59.016Z,5.50
2022-11-25T10:16:36.626Z,5.60
2022-11-25T10:19:15.900Z,5.60
2022-11-25T10:21:46.364Z,5.70
2022-11-25T10:24:15.799Z,5.70
2022-11-25T10:26:45.698Z,5.80
2022-11-25T10:29:39.183Z,5.80
2022-11-25T10:32:21.520Z,5.90
2022-11-25T10:34:54.771Z,6.00
2022-11-25T10:37:29.841Z,6.00
2022-11-25T10:39:58.290Z,6.00
2022-11-25T10:42:28.564Z,6.10
2022-11-25T10:44:57.298Z,6.20
2022-11-25T10:47:36.800Z,6.20
2022-11-25T10:50:23.761Z,6.20
2022-11-25T10:53:14.344Z,6.30
2022-11-25T10:55:59.247Z,6.30
2022-11-25T10:58:31.186Z,6.40
2022-11-25T11:01:16.049Z,6.50
2022-11-25T11:03:46.566Z,6.60
2022-11-25T11:06:33.095Z,6.60
2022-11-25T11:09:02.442Z,6.70
2022-11-25T11:11:30.740Z,6.80
2022-11-25T11:14:14.798Z,6.80
2022-11-25T11:16:45.655Z,6.80
2022-11-25T11:19:25.015Z,6.90
2022-11-25T11:21:53.858Z,6.90
2022-11-25T11:24:32.562Z,7.00
2022-11-25T11:27:05.348Z,7.00
2022-11-25T11:29:33.355Z,7.10
2022-11-25T11:32:03.948Z,7.10
2022-11-25T11:34:46.103Z,7.20
2022-11-25T11:37:30.647Z,7.20
2022-11-25T11:40:23.045Z,7.30
2022-11-25T11:43:09.831Z,7.40
2022-11-25T11:45:56.806Z,7.40
2022-11-25T11:48:28.585Z,7.50
2022-11-25T11:51:04.388Z,7.50
2022-11-25T11:53:38.304Z,7.50
2022-11-25T11:59:23.979Z,7.60
2022-11-25T12:02:06.250Z,7.70
2022-11-25T12:04:42.149Z,7.70
2022-11-25T12:07:16.842Z,7.70
2022-11-25T12:09:51.212Z,7.70
2022-11-25T12:12:23.415Z,7.70
2022-11-25T12:14:56.564Z,7.80
2022-11-25T12:17:32.009Z,7.80
2022-11-25T12:20:04.844Z,7.80
2022-11-25T12:22:39.210Z,7.90
2022-11-25T12:25:11.735Z,7.90
2022-11-25T12:27:45.998Z,7.90
2022-11-25T12:30:17.149Z,7.90
2022-11-25T12:33:04.013Z,8.00
2022-11-25T12:35:42.938Z,8.00
2022-11-25T12:38:27.020Z,8.00
2022-11-25T12:41:02.340Z,8.10
2022-11-25T12:43:40.728Z,8.10
2022-11-25T12:46:20.913Z,8.10
2022-11-25T12:48:49.175Z,8.10
2022-11-25T12:51:40.196Z,8.10
2022-11-25T12:54:24.666Z,8.10
2022-11-25T12:57:27.676Z,8.10
2022-11-25T13:00:39.399Z,8.10
2022-11-25T13:03:13.768Z,8.10
2022-11-25T13:06:19.883Z,8.10
2022-11-25T13:08:57.948Z,8.10
2022-11-25T13:11:53.806Z,8.10
2022-11-25T13:14:29.432Z,8.00
2022-11-25T13:17:00.331Z,8.00
2022-11-25T13:19:28.767Z,8.00
2022-11-25T13:22:29.668Z,8.00
2022-11-25T13:24:59.302Z,8.00
2022-11-25T13:27:31.890Z,8.00
2022-11-25T13:30:03.645Z,7.90
2022-11-25T13:32:43.297Z,7.90
2022-11-25T13:35:32.899Z,7.90
2022-11-25T13:38:01.078Z,8.00
2022-11-25T13:40:38.955Z,7.90
2022-11-25T13:43:22.743Z,7.90
2022-11-25T13:45:51.185Z,7.90
2022-11-25T13:48:23.798Z,7.80
2022-11-25T13:51:10.626Z,7.80
2022-11-25T13:53:40.027Z,7.80
2022-11-25T13:56:16.035Z,7.80
2022-11-25T13:59:17.288Z,7.80
2022-11-25T14:01:54.368Z,7.70
2022-11-25T14:04:41.228Z,7.70
2022-11-25T14:07:22.946Z,7.70
2022-11-25T14:10:10.328Z,7.70
2022-11-25T14:13:08.781Z,7.70
2022-11-25T14:15:56.732Z,7.70
2022-11-25T14:19:17.332Z,7.70
2022-11-25T14:21:54.620Z,7.70
2022-11-25T14:24:31.252Z,7.60
2022-11-25T14:27:01.045Z,7.60
2022-11-25T14:29:37.691Z,7.60
2022-11-25T14:32:15.087Z,7.60
2022-11-25T14:34:46.541Z,7.50
2022-11-25T14:37:21.479Z,7.50
2022-11-25T14:39:53.985Z,7.40
2022-11-25T14:42:26.615Z,7.40
2022-11-25T14:44:58.508Z,7.30
2022-11-25T14:47:28.489Z,7.30
2022-11-25T14:50:26.869Z,7.30
2022-11-25T14:52:49.624Z,7.20
2022-11-25T14:55:27.999Z,7.20
2022-11-25T14:57:56.357Z,7.20
2022-11-25T15:00:25.339Z,7.20
2022-11-25T15:02:56.295Z,7.10
2022-11-25T15:05:27.239Z,7.10
2022-11-25T15:08:00.745Z,7.10
2022-11-25T15:10:39.662Z,7.00
2022-11-25T15:13:15.221Z,7.00
2022-11-25T15:15:46.830Z,7.00
2022-11-25T15:18:21.307Z,6.90
2022-11-25T15:20:54.334Z,6.90
2022-11-25T15:23:28.145Z,6.90
2022-11-25T15:25:57.789Z,6.80
2022-11-25T15:28:25.829Z,6.80
2022-11-25T15:30:59.192Z,6.80
2022-11-25T15:33:29.306Z,6.70
2022-11-25T15:35:57.536Z,6.70
2022-11-25T15:38:41.126Z,6.70
2022-11-25T15:41:20.708Z,6.70
2022-11-25T15:43:50.583Z,6.60
2022-11-25T15:46:18.992Z,6.60
2022-11-25T15:48:48.755Z,6.50
2022-11-25T15:51:25.359Z,6.50
2022-11-25T15:53:57.607Z,6.40
2022-11-25T15:56:27.719Z,6.40
2022-11-25T15:59:01.293Z,6.40
2022-11-25T16:01:31.019Z,6.30
2022-11-25T16:04:12.270Z,6.30
2022-11-25T16:06:55.359Z,6.30
2022-11-25T16:09:28.637Z,6.20
2022-11-25T16:12:06.707Z,6.20
2022-11-25T16:14:37.918Z,6.20
2022-11-25T16:17:11.355Z,6.20
2022-11-25T16:19:42.738Z,6.10
2022-11-25T16:22:16.035Z,6.20
2022-11-25T16:24:51.175Z,6.10
2022-11-25T16:27:22.724Z,6.10
2022-11-25T16:29:56.724Z,6.10
2022-11-25T16:32:28.743Z,6.10
2022-11-25T16:34:57.702Z,6.10
2022-11-25T16:37:26.421Z,6.10
2022-11-25T16:39:55.750Z,6.00
2022-11-25T16:42:24.449Z,6.00
2022-11-25T16:44:53.538Z,6.00
2022-11-25T16:47:22.770Z,5.90
2022-11-25T16:49:50.950Z,6.00
2022-11-25T16:52:19.751Z,6.00
2022-11-25T16:54:47.813Z,5.90
2022-11-25T16:57:22.064Z,5.50
2022-11-25T16:59:55.941Z,5.30
2022-11-25T17:02:27.181Z,5.50
2022-11-25T17:04:55.559Z,5.60
2022-11-25T17:07:32.874Z,5.60
2022-11-25T17:10:01.596Z,5.30
2022-11-25T17:12:33.172Z,5.40
2022-11-25T17:15:01.723Z,5.60
2022-11-25T17:17:30.146Z,5.60
2022-11-25T17:19:58.208Z,5.60
2022-11-25T17:22:36.024Z,5.60
2022-11-25T17:25:07.463Z,5.40
2022-11-25T17:27:37.321Z,5.50
2022-11-25T17:30:08.407Z,5.50
2022-11-25T17:32:37.263Z,5.50
2022-11-25T17:35:13.483Z,5.60
2022-11-25T17:37:41.464Z,5.70
2022-11-25T17:40:10.403Z,5.70
2022-11-25T17:42:40.588Z,5.70
2022-11-25T17:45:14.271Z,5.60
2022-11-25T17:47:42.462Z,5.60
2022-11-25T17:50:17.610Z,5.60
2022-11-25T17:52:46.060Z,5.50
2022-11-25T17:55:17.121Z,5.50
2022-11-25T17:57:46.984Z,5.40
2022-11-25T18:00:17.154Z,5.40
2022-11-25T18:02:45.215Z,5.40
2022-11-25T18:05:18.743Z,5.40
2022-11-25T18:07:47.395Z,5.40
2022-11-25T18:10:17.464Z,5.40
2022-11-25T18:12:49.286Z,5.40
2022-11-25T18:15:20.287Z,5.40
2022-11-25T18:17:48.680Z,5.40
2022-11-25T18:20:18.698Z,5.40
2022-11-25T18:22:47.335Z,5.40
2022-11-25T18:25:16.567Z,5.40
2022-11-25T18:27:46.525Z,5.40
2022-11-25T18:30:20.127Z,5.40
2022-11-25T18:32:48.770Z,5.30
2022-11-25T18:35:18.947Z,5.30
2022-11-25T18:37:47.260Z,5.30
2022-11-25T18:40:16.430Z,5.30
2022-11-25T18:42:48.468Z,5.30
2022-11-25T18:45:21.094Z,5.30
2022-11-25T18:47:49.517Z,5.30
2022-11-25T18:50:19.859Z,5.30
2022-11-25T18:52:48.539Z,5.30
2022-11-25T18:55:18.655Z,5.30
2022-11-25T18:57:50.177Z,5.30
2022-11-25T19:00:37.547Z,5.30
2022-11-25T19:03:05.589Z,5.30
2022-11-25T19:05:34.856Z,5.20
2022-11-25T19:08:02.909Z,5.10
2022-11-25T19:10:36.192Z,4.90
2022-11-25T19:13:10.189Z,4.70
2022-11-25T19:15:38.414Z,4.50
2022-11-25T19:18:08.119Z,4.50
2022-11-25T19:20:36.076Z,4.60
2022-11-25T19:23:17.001Z,4.60
2022-11-25T19:25:45.618Z,4.60
2022-11-25T19:28:17.305Z,4.60
2022-11-25T19:30:47.553Z,4.80
2022-11-25T19:33:24.702Z,4.80
2022-11-25T19:35:53.052Z,4.90
2022-11-25T19:38:25.266Z,4.90
2022-11-25T19:40:53.424Z,4.90
2022-11-25T19:43:23.150Z,4.80
2022-11-25T19:45:51.612Z,4.80
2022-11-25T19:48:21.729Z,4.90
2022-11-25T19:50:52.072Z,4.90
2022-11-25T19:53:22.461Z,5.00
2022-11-25T19:55:50.563Z,5.00
2022-11-25T19:58:18.614Z,5.00
2022-11-25T20:00:48.711Z,5.00
2022-11-25T20:03:22.144Z,4.90
2022-11-25T20:05:51.343Z,4.80
2022-11-25T20:08:22.210Z,4.90
2022-11-25T20:10:50.618Z,4.90
2022-11-25T20:13:18.657Z,4.80
2022-11-25T20:15:48.355Z,4.70
2022-11-25T20:18:18.769Z,4.60
2022-11-25T20:20:51.464Z,4.60
2022-11-25T20:23:25.449Z,4.60
2022-11-25T20:25:53.463Z,4.60
2022-11-25T20:28:24.264Z,4.70
2022-11-25T20:30:54.334Z,4.80
2022-11-25T20:33:24.578Z,5.00
2022-11-25T20:35:59.614Z,5.10
2022-11-25T20:38:30.187Z,5.10
2022-11-25T20:41:00.240Z,5.20
2022-11-25T20:43:32.656Z,5.20
2022-11-25T20:46:03.506Z,5.20
2022-11-25T20:48:31.567Z,5.30
2022-11-25T20:51:01.263Z,5.20
2022-11-25T20:53:32.016Z,5.00
2022-11-25T20:56:00.688Z,5.00
2022-11-25T20:58:30.758Z,5.10
2022-11-25T21:01:01.001Z,5.00
2022-11-25T21:03:28.970Z,5.00
2022-11-25T21:05:58.094Z,5.00
2022-11-25T21:08:31.579Z,4.90
2022-11-25T21:11:00.315Z,4.90
2022-11-25T21:13:30.304Z,4.90
2022-11-25T21:15:58.608Z,4.90
2022-11-25T21:18:27.989Z,4.90
2022-11-25T21:20:57.958Z,4.90
2022-11-25T21:23:29.047Z,4.90
2022-11-25T21:26:04.441Z,4.90
2022-11-25T21:28:33.428Z,4.80
2022-11-25T21:31:01.379Z,4.80
2022-11-25T21:33:30.811Z,4.80
2022-11-25T21:36:00.291Z,4.70
2022-11-25T21:38:28.736Z,4.80
2022-11-25T21:40:58.579Z,4.80
2022-11-25T21:43:28.572Z,4.80
2022-11-25T21:46:01.503Z,4.80
2022-11-25T21:48:31.673Z,4.70
2022-11-25T21:50:59.730Z,4.70
2022-11-25T21:53:28.761Z,4.60
2022-11-25T21:55:59.119Z,4.60
2022-11-25T21:58:28.848Z,4.70
2022-11-25T22:00:58.512Z,4.70
2022-11-25T22:03:29.104Z,4.70
2022-11-25T22:05:58.467Z,4.70
2022-11-25T22:08:26.523Z,4.70
2022-11-25T22:10:56.423Z,4.70
2022-11-25T22:13:28.800Z,4.80
2022-11-25T22:15:58.904Z,4.80
2022-11-25T22:18:35.995Z,4.70
2022-11-25T22:21:05.764Z,4.70
2022-11-25T22:23:33.737Z,4.80
2022-11-25T22:26:01.854Z,4.80
2022-11-25T22:28:30.839Z,4.80
2022-11-25T22:31:02.226Z,4.80
2022-11-25T22:33:33.147Z,4.80
2022-11-25T22:36:02.075Z,4.80
2022-11-25T22:38:31.556Z,4.60
2022-11-25T22:41:02.225Z,4.60
2022-11-25T22:43:32.895Z,4.60
2022-11-25T22:46:01.157Z,4.70
2022-11-25T22:48:32.964Z,4.80
2022-11-25T22:51:01.169Z,4.90
2022-11-25T22:53:29.625Z,4.90
2022-11-25T22:55:59.207Z,5.00
2022-11-25T22:58:28.685Z,4.90
2022-11-25T23:00:57.983Z,4.90
2022-11-25T23:03:29.316Z,4.80
2022-11-25T23:05:58.432Z,4.60
2022-11-25T23:08:28.561Z,4.50
2022-11-25T23:10:58.588Z,4.40
2022-11-25T23:13:26.807Z,4.30
2022-11-25T23:15:57.228Z,4.30
2022-11-25T23:18:32.883Z,4.30
2022-11-25T23:21:06.078Z,4.20
2022-11-25T23:23:34.638Z,4.10
2022-11-25T23:26:07.459Z,4.00
2022-11-25T23:28:35.416Z,4.00
2022-11-25T23:31:03.969Z,4.00
2022-11-25T23:33:37.074Z,3.90
2022-11-25T23:36:09.870Z,3.90
2022-11-25T23:38:43.483Z,3.90
2022-11-25T23:41:16.982Z,3.90
2022-11-25T23:43:45.380Z,3.90
2022-11-25T23:46:16.655Z,3.90
2022-11-25T23:48:48.749Z,3.90
2022-11-25T23:51:16.758Z,3.70
2022-11-25T23:53:46.162Z,3.70
2022-11-25T23:56:15.760Z,3.80
2022-11-25T23:58:43.860Z,3.80
